sensor_id;sensor_type;location;lat;lon;timestamp;temperature;humidity
58102;HTU21D;52034;51.926;6.320;2024-03-23T00:53:50;8.32;84.86
58102;HTU21D;52034;51.926;6.320;2024-03-23T00:54:50;8.36;85.25
58102;HTU21D;52034;51.926;6.320;2024-03-23T00:55:51;8.37;84.94
58102;HTU21D;52034;51.926;6.320;2024-03-23T00:56:52;8.41;84.68
58102;HTU21D;52034;51.926;6.320;2024-03-23T00:57:53;8.38;84.43
58102;HTU21D;52034;51.926;6.320;2024-03-23T00:58:54;8.38;85.13
58102;HTU21D;52034;51.926;6.320;2024-03-23T00:59:54;8.37;84.65
58102;HTU21D;52034;51.926;6.320;2024-03-23T01:00:55;8.34;84.21
58102;HTU21D;52034;51.926;6.320;2024-03-23T01:01:56;8.35;84.80
58102;HTU21D;52034;51.926;6.320;2024-03-23T01:02:56;8.32;84.87
58102;HTU21D;52034;51.926;6.320;2024-03-23T01:03:57;8.33;83.85
58102;HTU21D;52034;51.926;6.320;2024-03-23T01:04:57;8.34;84.51
58102;HTU21D;52034;51.926;6.320;2024-03-23T01:05:59;8.34;83.55
58102;HTU21D;52034;51.926;6.320;2024-03-23T01:06:59;8.26;84.37
58102;HTU21D;52034;51.926;6.320;2024-03-23T01:08:00;8.29;84.07
58102;HTU21D;52034;51.926;6.320;2024-03-23T01:09:01;8.28;82.94
58102;HTU21D;52034;51.926;6.320;2024-03-23T01:10:01;8.31;83.37
58102;HTU21D;52034;51.926;6.320;2024-03-23T01:11:02;8.29;83.33
58102;HTU21D;52034;51.926;6.320;2024-03-23T01:12:03;8.31;83.42
58102;HTU21D;52034;51.926;6.320;2024-03-23T01:13:04;8.32;83.55
58102;HTU21D;52034;51.926;6.320;2024-03-23T01:14:05;8.31;83.60
58102;HTU21D;52034;51.926;6.320;2024-03-23T01:15:06;8.33;83.84
58102;HTU21D;52034;51.926;6.320;2024-03-23T01:16:07;8.31;83.82
58102;HTU21D;52034;51.926;6.320;2024-03-23T01:17:08;8.29;83.97
58102;HTU21D;52034;51.926;6.320;2024-03-23T01:18:08;8.29;83.68
58102;HTU21D;52034;51.926;6.320;2024-03-23T01:19:09;8.29;83.94
58102;HTU21D;52034;51.926;6.320;2024-03-23T01:20:10;8.26;84.10
58102;HTU21D;52034;51.926;6.320;2024-03-23T01:21:10;8.21;83.87
58102;HTU21D;52034;51.926;6.320;2024-03-23T01:22:11;8.20;83.98
58102;HTU21D;52034;51.926;6.320;2024-03-23T01:23:12;8.20;84.07
58102;HTU21D;52034;51.926;6.320;2024-03-23T01:24:13;8.20;84.57
58102;HTU21D;52034;51.926;6.320;2024-03-23T01:25:13;8.20;84.96
58102;HTU21D;52034;51.926;6.320;2024-03-23T01:26:14;8.18;83.49
58102;HTU21D;52034;51.926;6.320;2024-03-23T01:27:15;8.20;84.02
58102;HTU21D;52034;51.926;6.320;2024-03-23T01:28:15;8.18;84.38
58102;HTU21D;52034;51.926;6.320;2024-03-23T01:29:16;8.16;85.38
58102;HTU21D;52034;51.926;6.320;2024-03-23T01:30:17;8.20;84.49
58102;HTU21D;52034;51.926;6.320;2024-03-23T01:31:18;8.22;84.78
58102;HTU21D;52034;51.926;6.320;2024-03-23T01:32:18;8.21;84.77
58102;HTU21D;52034;51.926;6.320;2024-03-23T01:33:19;8.20;84.19
58102;HTU21D;52034;51.926;6.320;2024-03-23T01:34:20;8.20;83.88
58102;HTU21D;52034;51.926;6.320;2024-03-23T01:35:21;8.20;84.29
58102;HTU21D;52034;51.926;6.320;2024-03-23T01:36:22;8.22;84.10
58102;HTU21D;52034;51.926;6.320;2024-03-23T01:37:22;8.20;83.35
58102;HTU21D;52034;51.926;6.320;2024-03-23T01:38:23;8.19;83.05
58102;HTU21D;52034;51.926;6.320;2024-03-23T01:39:24;8.19;84.06
58102;HTU21D;52034;51.926;6.320;2024-03-23T01:40:28;8.16;84.61
58102;HTU21D;52034;51.926;6.320;2024-03-23T01:41:32;8.14;84.11
58102;HTU21D;52034;51.926;6.320;2024-03-23T01:42:33;8.16;83.89
58102;HTU21D;52034;51.926;6.320;2024-03-23T01:43:34;8.17;83.74
58102;HTU21D;52034;51.926;6.320;2024-03-23T01:44:34;8.15;84.47
58102;HTU21D;52034;51.926;6.320;2024-03-23T01:45:35;8.14;83.36
58102;HTU21D;52034;51.926;6.320;2024-03-23T01:46:39;8.15;84.63
58102;HTU21D;52034;51.926;6.320;2024-03-23T01:47:41;8.15;83.95
58102;HTU21D;52034;51.926;6.320;2024-03-23T01:48:43;8.15;83.99
58102;HTU21D;52034;51.926;6.320;2024-03-23T01:49:43;8.13;84.11
58102;HTU21D;52034;51.926;6.320;2024-03-23T01:50:44;8.13;84.30
58102;HTU21D;52034;51.926;6.320;2024-03-23T01:51:45;8.12;83.98
58102;HTU21D;52034;51.926;6.320;2024-03-23T01:52:46;8.13;83.85
58102;HTU21D;52034;51.926;6.320;2024-03-23T01:53:47;8.14;84.91
58102;HTU21D;52034;51.926;6.320;2024-03-23T01:54:47;8.12;84.06
58102;HTU21D;52034;51.926;6.320;2024-03-23T01:55:49;8.06;83.68
58102;HTU21D;52034;51.926;6.320;2024-03-23T01:56:50;8.07;84.29
58102;HTU21D;52034;51.926;6.320;2024-03-23T01:57:51;8.11;83.94
58102;HTU21D;52034;51.926;6.320;2024-03-23T01:58:52;8.09;85.03
58102;HTU21D;52034;51.926;6.320;2024-03-23T01:59:53;8.06;85.06
58102;HTU21D;52034;51.926;6.320;2024-03-23T02:01:00;8.07;83.32
58102;HTU21D;52034;51.926;6.320;2024-03-23T02:02:01;8.08;84.01
58102;HTU21D;52034;51.926;6.320;2024-03-23T02:03:11;8.07;83.92
58102;HTU21D;52034;51.926;6.320;2024-03-23T02:04:22;8.05;83.87
58102;HTU21D;52034;51.926;6.320;2024-03-23T02:05:23;8.07;84.26
58102;HTU21D;52034;51.926;6.320;2024-03-23T02:06:24;8.06;83.84
58102;HTU21D;52034;51.926;6.320;2024-03-23T02:07:24;8.03;83.78
58102;HTU21D;52034;51.926;6.320;2024-03-23T02:08:25;8.04;84.22
58102;HTU21D;52034;51.926;6.320;2024-03-23T02:09:26;8.06;83.09
58102;HTU21D;52034;51.926;6.320;2024-03-23T02:10:26;8.06;83.87
58102;HTU21D;52034;51.926;6.320;2024-03-23T02:11:27;8.01;83.42
58102;HTU21D;52034;51.926;6.320;2024-03-23T02:12:28;8.02;83.42
58102;HTU21D;52034;51.926;6.320;2024-03-23T02:13:28;8.03;84.29
58102;HTU21D;52034;51.926;6.320;2024-03-23T02:14:29;8.06;84.12
58102;HTU21D;52034;51.926;6.320;2024-03-23T02:15:30;8.03;83.58
58102;HTU21D;52034;51.926;6.320;2024-03-23T02:16:30;8.04;84.36
58102;HTU21D;52034;51.926;6.320;2024-03-23T02:17:32;8.02;84.81
58102;HTU21D;52034;51.926;6.320;2024-03-23T02:18:33;8.02;84.43
58102;HTU21D;52034;51.926;6.320;2024-03-23T02:19:34;8.02;83.55
58102;HTU21D;52034;51.926;6.320;2024-03-23T02:20:35;7.99;82.94
58102;HTU21D;52034;51.926;6.320;2024-03-23T02:21:36;8.00;84.63
58102;HTU21D;52034;51.926;6.320;2024-03-23T02:22:37;7.98;84.47
58102;HTU21D;52034;51.926;6.320;2024-03-23T02:23:37;7.99;84.26
58102;HTU21D;52034;51.926;6.320;2024-03-23T02:24:38;8.00;83.84
58102;HTU21D;52034;51.926;6.320;2024-03-23T02:25:39;8.02;84.48
58102;HTU21D;52034;51.926;6.320;2024-03-23T02:26:40;8.01;84.92
58102;HTU21D;52034;51.926;6.320;2024-03-23T02:27:40;8.00;84.83
58102;HTU21D;52034;51.926;6.320;2024-03-23T02:28:41;7.97;85.38
58102;HTU21D;52034;51.926;6.320;2024-03-23T02:29:41;7.96;84.82
58102;HTU21D;52034;51.926;6.320;2024-03-23T02:30:42;7.93;84.38
58102;HTU21D;52034;51.926;6.320;2024-03-23T02:31:43;7.92;83.91
58102;HTU21D;52034;51.926;6.320;2024-03-23T02:32:44;7.94;84.73
58102;HTU21D;52034;51.926;6.320;2024-03-23T02:33:44;7.92;84.87
58102;HTU21D;52034;51.926;6.320;2024-03-23T02:34:45;7.91;84.49
58102;HTU21D;52034;51.926;6.320;2024-03-23T02:35:46;7.90;84.05
58102;HTU21D;52034;51.926;6.320;2024-03-23T02:36:47;7.87;84.25
58102;HTU21D;52034;51.926;6.320;2024-03-23T02:37:48;7.86;84.48
58102;HTU21D;52034;51.926;6.320;2024-03-23T02:38:49;7.85;84.41
58102;HTU21D;52034;51.926;6.320;2024-03-23T02:39:50;7.82;84.87
58102;HTU21D;52034;51.926;6.320;2024-03-23T02:40:50;7.81;84.80
58102;HTU21D;52034;51.926;6.320;2024-03-23T02:41:51;7.81;85.04
58102;HTU21D;52034;51.926;6.320;2024-03-23T02:42:52;7.76;85.87
58102;HTU21D;52034;51.926;6.320;2024-03-23T02:43:52;7.75;85.34
58102;HTU21D;52034;51.926;6.320;2024-03-23T02:44:53;7.72;85.09
58102;HTU21D;52034;51.926;6.320;2024-03-23T02:45:54;7.73;85.10
58102;HTU21D;52034;51.926;6.320;2024-03-23T02:46:55;7.69;85.71
58102;HTU21D;52034;51.926;6.320;2024-03-23T02:47:55;7.69;85.32
58102;HTU21D;52034;51.926;6.320;2024-03-23T02:48:57;7.69;86.16
58102;HTU21D;52034;51.926;6.320;2024-03-23T02:49:57;7.69;85.28
58102;HTU21D;52034;51.926;6.320;2024-03-23T02:50:58;7.65;85.47
58102;HTU21D;52034;51.926;6.320;2024-03-23T02:51:59;7.68;85.81
58102;HTU21D;52034;51.926;6.320;2024-03-23T02:52:59;7.69;86.03
58102;HTU21D;52034;51.926;6.320;2024-03-23T02:54:00;7.67;86.35
58102;HTU21D;52034;51.926;6.320;2024-03-23T02:55:01;7.68;86.64
58102;HTU21D;52034;51.926;6.320;2024-03-23T02:56:04;7.68;86.27
58102;HTU21D;52034;51.926;6.320;2024-03-23T02:57:05;7.62;86.33
58102;HTU21D;52034;51.926;6.320;2024-03-23T02:58:06;7.58;85.82
58102;HTU21D;52034;51.926;6.320;2024-03-23T02:59:06;7.44;86.20
58102;HTU21D;52034;51.926;6.320;2024-03-23T03:00:07;7.54;87.08
58102;HTU21D;52034;51.926;6.320;2024-03-23T03:01:09;7.52;86.61
58102;HTU21D;52034;51.926;6.320;2024-03-23T03:02:11;7.47;86.95
58102;HTU21D;52034;51.926;6.320;2024-03-23T03:03:11;7.53;87.00
58102;HTU21D;52034;51.926;6.320;2024-03-23T03:04:12;7.62;86.58
58102;HTU21D;52034;51.926;6.320;2024-03-23T03:05:13;7.67;86.63
58102;HTU21D;52034;51.926;6.320;2024-03-23T03:06:22;7.65;86.86
58102;HTU21D;52034;51.926;6.320;2024-03-23T03:07:22;7.70;87.15
58102;HTU21D;52034;51.926;6.320;2024-03-23T03:08:23;7.70;86.70
58102;HTU21D;52034;51.926;6.320;2024-03-23T03:09:24;7.67;86.73
58102;HTU21D;52034;51.926;6.320;2024-03-23T03:10:25;7.71;87.01
58102;HTU21D;52034;51.926;6.320;2024-03-23T03:11:26;7.74;86.52
58102;HTU21D;52034;51.926;6.320;2024-03-23T03:12:26;7.65;85.42
58102;HTU21D;52034;51.926;6.320;2024-03-23T03:13:27;7.65;86.53
58102;HTU21D;52034;51.926;6.320;2024-03-23T03:14:28;7.70;86.67
58102;HTU21D;52034;51.926;6.320;2024-03-23T03:15:29;7.67;87.03
58102;HTU21D;52034;51.926;6.320;2024-03-23T03:16:29;7.62;86.48
58102;HTU21D;52034;51.926;6.320;2024-03-23T03:17:30;7.52;86.40
58102;HTU21D;52034;51.926;6.320;2024-03-23T03:18:31;7.54;88.03
58102;HTU21D;52034;51.926;6.320;2024-03-23T03:19:31;7.45;87.69
58102;HTU21D;52034;51.926;6.320;2024-03-23T03:20:32;7.35;88.18
58102;HTU21D;52034;51.926;6.320;2024-03-23T03:21:33;7.29;88.18
58102;HTU21D;52034;51.926;6.320;2024-03-23T03:22:34;7.30;88.21
58102;HTU21D;52034;51.926;6.320;2024-03-23T03:23:35;7.27;88.14
58102;HTU21D;52034;51.926;6.320;2024-03-23T03:24:35;7.33;88.92
58102;HTU21D;52034;51.926;6.320;2024-03-23T03:25:36;7.28;87.41
58102;HTU21D;52034;51.926;6.320;2024-03-23T03:26:37;7.29;87.80
58102;HTU21D;52034;51.926;6.320;2024-03-23T03:27:37;7.41;88.89
58102;HTU21D;52034;51.926;6.320;2024-03-23T03:28:38;7.42;88.22
58102;HTU21D;52034;51.926;6.320;2024-03-23T03:29:39;7.38;87.13
58102;HTU21D;52034;51.926;6.320;2024-03-23T03:30:40;7.45;87.53
58102;HTU21D;52034;51.926;6.320;2024-03-23T03:31:41;7.47;87.99
58102;HTU21D;52034;51.926;6.320;2024-03-23T03:32:42;7.46;88.03
58102;HTU21D;52034;51.926;6.320;2024-03-23T03:33:43;7.43;87.44
58102;HTU21D;52034;51.926;6.320;2024-03-23T03:34:44;7.49;87.72
58102;HTU21D;52034;51.926;6.320;2024-03-23T03:35:45;7.54;87.21
58102;HTU21D;52034;51.926;6.320;2024-03-23T03:36:46;7.46;86.49
58102;HTU21D;52034;51.926;6.320;2024-03-23T03:37:47;7.59;87.09
58102;HTU21D;52034;51.926;6.320;2024-03-23T03:38:48;7.55;85.77
58102;HTU21D;52034;51.926;6.320;2024-03-23T03:39:49;7.57;86.67
58102;HTU21D;52034;51.926;6.320;2024-03-23T03:40:49;7.56;86.17
58102;HTU21D;52034;51.926;6.320;2024-03-23T03:41:50;7.56;87.11
58102;HTU21D;52034;51.926;6.320;2024-03-23T03:42:51;7.53;86.78
58102;HTU21D;52034;51.926;6.320;2024-03-23T03:43:52;7.48;87.41
58102;HTU21D;52034;51.926;6.320;2024-03-23T03:44:52;7.48;86.61
58102;HTU21D;52034;51.926;6.320;2024-03-23T03:45:54;7.48;87.78
58102;HTU21D;52034;51.926;6.320;2024-03-23T03:46:55;7.47;86.99
58102;HTU21D;52034;51.926;6.320;2024-03-23T03:47:56;7.45;87.22
58102;HTU21D;52034;51.926;6.320;2024-03-23T03:48:56;7.47;87.71
58102;HTU21D;52034;51.926;6.320;2024-03-23T03:49:57;7.46;87.85
58102;HTU21D;52034;51.926;6.320;2024-03-23T03:50:58;7.47;87.58
58102;HTU21D;52034;51.926;6.320;2024-03-23T03:51:58;7.49;87.22
58102;HTU21D;52034;51.926;6.320;2024-03-23T03:52:59;7.42;87.64
58102;HTU21D;52034;51.926;6.320;2024-03-23T03:53:59;7.44;87.37
58102;HTU21D;52034;51.926;6.320;2024-03-23T03:55:01;7.46;87.31
58102;HTU21D;52034;51.926;6.320;2024-03-23T03:56:02;7.49;87.22
58102;HTU21D;52034;51.926;6.320;2024-03-23T03:57:03;7.47;87.40
58102;HTU21D;52034;51.926;6.320;2024-03-23T03:58:04;7.47;87.32
58102;HTU21D;52034;51.926;6.320;2024-03-23T03:59:05;7.49;87.90
58102;HTU21D;52034;51.926;6.320;2024-03-23T04:00:06;7.45;87.24
58102;HTU21D;52034;51.926;6.320;2024-03-23T04:01:06;7.45;87.28
58102;HTU21D;52034;51.926;6.320;2024-03-23T04:02:07;7.47;87.38
58102;HTU21D;52034;51.926;6.320;2024-03-23T04:03:08;7.42;87.73
58102;HTU21D;52034;51.926;6.320;2024-03-23T04:04:08;7.42;87.34
58102;HTU21D;52034;51.926;6.320;2024-03-23T04:05:09;7.45;87.77
58102;HTU21D;52034;51.926;6.320;2024-03-23T04:06:10;7.43;87.10
58102;HTU21D;52034;51.926;6.320;2024-03-23T04:07:10;7.44;87.22
58102;HTU21D;52034;51.926;6.320;2024-03-23T04:08:11;7.41;87.50
58102;HTU21D;52034;51.926;6.320;2024-03-23T04:09:12;7.44;88.24
58102;HTU21D;52034;51.926;6.320;2024-03-23T04:10:12;7.42;87.79
58102;HTU21D;52034;51.926;6.320;2024-03-23T04:11:13;7.44;87.69
58102;HTU21D;52034;51.926;6.320;2024-03-23T04:12:14;7.43;87.19
58102;HTU21D;52034;51.926;6.320;2024-03-23T04:13:14;7.37;87.02
58102;HTU21D;52034;51.926;6.320;2024-03-23T04:14:15;7.39;88.14
58102;HTU21D;52034;51.926;6.320;2024-03-23T04:15:17;7.39;87.80
58102;HTU21D;52034;51.926;6.320;2024-03-23T04:16:31;7.35;88.08
58102;HTU21D;52034;51.926;6.320;2024-03-23T04:17:32;7.34;87.78
58102;HTU21D;52034;51.926;6.320;2024-03-23T04:18:34;7.38;88.44
58102;HTU21D;52034;51.926;6.320;2024-03-23T04:19:35;7.32;87.89
58102;HTU21D;52034;51.926;6.320;2024-03-23T04:20:36;7.33;87.89
58102;HTU21D;52034;51.926;6.320;2024-03-23T04:21:37;7.38;88.28
58102;HTU21D;52034;51.926;6.320;2024-03-23T04:22:38;7.30;88.25
58102;HTU21D;52034;51.926;6.320;2024-03-23T04:23:39;7.31;88.57
58102;HTU21D;52034;51.926;6.320;2024-03-23T04:24:39;7.29;87.85
58102;HTU21D;52034;51.926;6.320;2024-03-23T04:25:40;7.27;88.22
58102;HTU21D;52034;51.926;6.320;2024-03-23T04:26:41;7.27;88.26
58102;HTU21D;52034;51.926;6.320;2024-03-23T04:27:45;7.25;88.18
58102;HTU21D;52034;51.926;6.320;2024-03-23T04:28:46;7.26;88.57
58102;HTU21D;52034;51.926;6.320;2024-03-23T04:29:47;7.27;88.49
58102;HTU21D;52034;51.926;6.320;2024-03-23T04:30:48;7.26;88.33
58102;HTU21D;52034;51.926;6.320;2024-03-23T04:31:49;7.26;88.09
58102;HTU21D;52034;51.926;6.320;2024-03-23T04:32:50;7.23;87.93
58102;HTU21D;52034;51.926;6.320;2024-03-23T04:33:51;7.20;87.67
58102;HTU21D;52034;51.926;6.320;2024-03-23T04:34:56;7.17;88.02
58102;HTU21D;52034;51.926;6.320;2024-03-23T04:35:56;7.22;88.55
58102;HTU21D;52034;51.926;6.320;2024-03-23T04:36:58;7.17;88.35
58102;HTU21D;52034;51.926;6.320;2024-03-23T04:37:59;7.16;88.35
58102;HTU21D;52034;51.926;6.320;2024-03-23T04:38:59;7.12;88.22
58102;HTU21D;52034;51.926;6.320;2024-03-23T04:40:00;7.12;88.09
58102;HTU21D;52034;51.926;6.320;2024-03-23T04:41:09;7.08;88.04
58102;HTU21D;52034;51.926;6.320;2024-03-23T04:42:09;7.11;88.79
58102;HTU21D;52034;51.926;6.320;2024-03-23T04:43:10;7.08;88.67
58102;HTU21D;52034;51.926;6.320;2024-03-23T04:44:11;7.11;88.97
58102;HTU21D;52034;51.926;6.320;2024-03-23T04:45:16;7.11;88.50
58102;HTU21D;52034;51.926;6.320;2024-03-23T04:46:16;7.08;88.63
58102;HTU21D;52034;51.926;6.320;2024-03-23T04:47:19;7.10;89.10
58102;HTU21D;52034;51.926;6.320;2024-03-23T04:48:20;7.08;88.72
58102;HTU21D;52034;51.926;6.320;2024-03-23T04:49:21;7.02;88.28
58102;HTU21D;52034;51.926;6.320;2024-03-23T04:50:23;7.05;89.09
58102;HTU21D;52034;51.926;6.320;2024-03-23T04:51:27;7.02;88.58
58102;HTU21D;52034;51.926;6.320;2024-03-23T04:52:27;7.02;88.46
58102;HTU21D;52034;51.926;6.320;2024-03-23T04:53:28;7.01;89.10
58102;HTU21D;52034;51.926;6.320;2024-03-23T04:54:29;6.98;88.02
58102;HTU21D;52034;51.926;6.320;2024-03-23T04:55:32;6.90;89.07
58102;HTU21D;52034;51.926;6.320;2024-03-23T04:56:33;6.96;89.24
58102;HTU21D;52034;51.926;6.320;2024-03-23T04:57:34;6.95;89.11
58102;HTU21D;52034;51.926;6.320;2024-03-23T04:58:34;6.95;89.17
58102;HTU21D;52034;51.926;6.320;2024-03-23T04:59:35;6.93;88.91
58102;HTU21D;52034;51.926;6.320;2024-03-23T05:00:36;6.85;89.24
58102;HTU21D;52034;51.926;6.320;2024-03-23T05:01:36;6.90;90.03
58102;HTU21D;52034;51.926;6.320;2024-03-23T05:02:43;6.91;88.70
58102;HTU21D;52034;51.926;6.320;2024-03-23T05:03:45;6.94;89.09
58102;HTU21D;52034;51.926;6.320;2024-03-23T05:04:46;6.85;88.46
58102;HTU21D;52034;51.926;6.320;2024-03-23T05:05:50;6.90;89.55
58102;HTU21D;52034;51.926;6.320;2024-03-23T05:06:50;6.87;88.97
58102;HTU21D;52034;51.926;6.320;2024-03-23T05:07:51;6.89;89.02
58102;HTU21D;52034;51.926;6.320;2024-03-23T05:08:51;6.91;88.82
58102;HTU21D;52034;51.926;6.320;2024-03-23T05:09:55;6.90;88.80
58102;HTU21D;52034;51.926;6.320;2024-03-23T05:10:56;6.84;88.95
58102;HTU21D;52034;51.926;6.320;2024-03-23T05:11:56;6.84;88.31
58102;HTU21D;52034;51.926;6.320;2024-03-23T05:13:00;6.83;88.53
58102;HTU21D;52034;51.926;6.320;2024-03-23T05:14:00;6.78;88.64
58102;HTU21D;52034;51.926;6.320;2024-03-23T05:15:01;6.76;89.46
58102;HTU21D;52034;51.926;6.320;2024-03-23T05:16:05;6.79;89.34
58102;HTU21D;52034;51.926;6.320;2024-03-23T05:17:06;6.79;88.67
58102;HTU21D;52034;51.926;6.320;2024-03-23T05:18:06;6.80;89.42
58102;HTU21D;52034;51.926;6.320;2024-03-23T05:19:07;6.80;88.87
58102;HTU21D;52034;51.926;6.320;2024-03-23T05:20:08;6.82;88.73
58102;HTU21D;52034;51.926;6.320;2024-03-23T05:21:10;6.82;88.41
58102;HTU21D;52034;51.926;6.320;2024-03-23T05:22:10;6.75;88.47
58102;HTU21D;52034;51.926;6.320;2024-03-23T05:23:11;6.74;87.87
58102;HTU21D;52034;51.926;6.320;2024-03-23T05:24:11;6.74;89.08
58102;HTU21D;52034;51.926;6.320;2024-03-23T05:25:12;6.71;88.62
58102;HTU21D;52034;51.926;6.320;2024-03-23T05:26:14;6.65;89.32
58102;HTU21D;52034;51.926;6.320;2024-03-23T05:27:15;6.70;88.53
58102;HTU21D;52034;51.926;6.320;2024-03-23T05:28:15;6.73;88.42
58102;HTU21D;52034;51.926;6.320;2024-03-23T05:29:16;6.74;88.53
58102;HTU21D;52034;51.926;6.320;2024-03-23T05:30:17;6.63;87.53
58102;HTU21D;52034;51.926;6.320;2024-03-23T05:31:25;6.64;88.25
58102;HTU21D;52034;51.926;6.320;2024-03-23T05:32:25;6.68;88.89
58102;HTU21D;52034;51.926;6.320;2024-03-23T05:33:26;6.54;87.73
58102;HTU21D;52034;51.926;6.320;2024-03-23T05:34:27;6.37;86.58
58102;HTU21D;52034;51.926;6.320;2024-03-23T05:35:29;6.42;88.00
58102;HTU21D;52034;51.926;6.320;2024-03-23T05:36:30;6.37;87.25
58102;HTU21D;52034;51.926;6.320;2024-03-23T05:37:31;6.28;87.61
58102;HTU21D;52034;51.926;6.320;2024-03-23T05:38:34;6.14;87.41
58102;HTU21D;52034;51.926;6.320;2024-03-23T05:39:35;6.12;88.09
58102;HTU21D;52034;51.926;6.320;2024-03-23T05:40:36;6.05;87.73
58102;HTU21D;52034;51.926;6.320;2024-03-23T05:41:37;5.91;88.10
58102;HTU21D;52034;51.926;6.320;2024-03-23T05:42:38;5.93;88.63
58102;HTU21D;52034;51.926;6.320;2024-03-23T05:43:39;5.92;90.20
58102;HTU21D;52034;51.926;6.320;2024-03-23T05:44:40;5.87;89.47
58102;HTU21D;52034;51.926;6.320;2024-03-23T05:45:40;5.91;90.78
58102;HTU21D;52034;51.926;6.320;2024-03-23T05:46:41;6.04;90.64
58102;HTU21D;52034;51.926;6.320;2024-03-23T05:47:42;5.91;88.52
58102;HTU21D;52034;51.926;6.320;2024-03-23T05:48:42;5.90;89.30
58102;HTU21D;52034;51.926;6.320;2024-03-23T05:49:46;5.95;89.73
58102;HTU21D;52034;51.926;6.320;2024-03-23T05:50:47;5.95;89.15
58102;HTU21D;52034;51.926;6.320;2024-03-23T05:51:47;5.97;88.86
58102;HTU21D;52034;51.926;6.320;2024-03-23T05:52:49;5.94;89.25
58102;HTU21D;52034;51.926;6.320;2024-03-23T05:53:49;5.97;89.77
58102;HTU21D;52034;51.926;6.320;2024-03-23T05:54:51;6.08;88.70
58102;HTU21D;52034;51.926;6.320;2024-03-23T05:55:51;6.01;88.99
58102;HTU21D;52034;51.926;6.320;2024-03-23T05:57:00;5.85;87.99
58102;HTU21D;52034;51.926;6.320;2024-03-23T05:58:00;6.04;89.61
58102;HTU21D;52034;51.926;6.320;2024-03-23T05:59:01;6.11;87.51
58102;HTU21D;52034;51.926;6.320;2024-03-23T06:00:03;6.09;87.76
58102;HTU21D;52034;51.926;6.320;2024-03-23T06:01:12;6.10;87.93
58102;HTU21D;52034;51.926;6.320;2024-03-23T06:02:13;6.20;88.33
58102;HTU21D;52034;51.926;6.320;2024-03-23T06:03:13;6.25;87.58
58102;HTU21D;52034;51.926;6.320;2024-03-23T06:04:14;6.29;88.90
58102;HTU21D;52034;51.926;6.320;2024-03-23T06:05:15;6.28;87.81
58102;HTU21D;52034;51.926;6.320;2024-03-23T06:06:15;6.26;87.16
58102;HTU21D;52034;51.926;6.320;2024-03-23T06:07:16;6.21;87.55
58102;HTU21D;52034;51.926;6.320;2024-03-23T06:08:17;6.12;87.95
58102;HTU21D;52034;51.926;6.320;2024-03-23T06:09:17;6.14;88.85
58102;HTU21D;52034;51.926;6.320;2024-03-23T06:10:18;6.22;88.80
58102;HTU21D;52034;51.926;6.320;2024-03-23T06:11:19;6.23;88.17
58102;HTU21D;52034;51.926;6.320;2024-03-23T06:12:19;6.13;89.06
58102;HTU21D;52034;51.926;6.320;2024-03-23T06:13:22;6.34;89.43
58102;HTU21D;52034;51.926;6.320;2024-03-23T06:14:30;6.39;88.71
58102;HTU21D;52034;51.926;6.320;2024-03-23T06:15:30;6.44;89.20
58102;HTU21D;52034;51.926;6.320;2024-03-23T06:16:32;6.65;88.02
58102;HTU21D;52034;51.926;6.320;2024-03-23T06:17:32;6.76;87.61
58102;HTU21D;52034;51.926;6.320;2024-03-23T06:18:34;6.84;87.12
58102;HTU21D;52034;51.926;6.320;2024-03-23T06:19:34;6.90;86.66
58102;HTU21D;52034;51.926;6.320;2024-03-23T06:20:35;6.95;86.58
58102;HTU21D;52034;51.926;6.320;2024-03-23T06:21:36;6.97;86.77
58102;HTU21D;52034;51.926;6.320;2024-03-23T06:22:37;6.97;87.05
58102;HTU21D;52034;51.926;6.320;2024-03-23T06:23:47;6.97;86.57
58102;HTU21D;52034;51.926;6.320;2024-03-23T06:24:53;7.01;86.26
58102;HTU21D;52034;51.926;6.320;2024-03-23T06:25:54;7.03;86.23
58102;HTU21D;52034;51.926;6.320;2024-03-23T06:26:54;7.08;86.41
58102;HTU21D;52034;51.926;6.320;2024-03-23T06:27:55;7.04;85.81
58102;HTU21D;52034;51.926;6.320;2024-03-23T06:28:56;7.10;86.07
58102;HTU21D;52034;51.926;6.320;2024-03-23T06:29:57;7.13;86.52
58102;HTU21D;52034;51.926;6.320;2024-03-23T06:30:58;7.11;85.97
58102;HTU21D;52034;51.926;6.320;2024-03-23T06:31:59;7.17;86.32
58102;HTU21D;52034;51.926;6.320;2024-03-23T06:33:00;7.17;85.69
58102;HTU21D;52034;51.926;6.320;2024-03-23T06:34:00;7.17;85.46
58102;HTU21D;52034;51.926;6.320;2024-03-23T06:35:02;7.17;85.91
58102;HTU21D;52034;51.926;6.320;2024-03-23T06:36:09;7.15;85.84
58102;HTU21D;52034;51.926;6.320;2024-03-23T06:37:10;7.20;85.80
58102;HTU21D;52034;51.926;6.320;2024-03-23T06:38:10;7.10;85.76
58102;HTU21D;52034;51.926;6.320;2024-03-23T06:39:11;7.18;85.65
58102;HTU21D;52034;51.926;6.320;2024-03-23T06:40:15;7.20;86.08
58102;HTU21D;52034;51.926;6.320;2024-03-23T06:41:16;7.29;85.83
58102;HTU21D;52034;51.926;6.320;2024-03-23T06:42:20;7.11;85.75
58102;HTU21D;52034;51.926;6.320;2024-03-23T06:43:20;7.29;86.44
58102;HTU21D;52034;51.926;6.320;2024-03-23T06:44:21;7.39;85.80
58102;HTU21D;52034;51.926;6.320;2024-03-23T06:45:22;7.37;85.00
58102;HTU21D;52034;51.926;6.320;2024-03-23T06:46:23;7.41;85.12
58102;HTU21D;52034;51.926;6.320;2024-03-23T06:47:24;7.42;85.16
58102;HTU21D;52034;51.926;6.320;2024-03-23T06:48:26;7.41;84.66
58102;HTU21D;52034;51.926;6.320;2024-03-23T06:49:27;7.40;84.23
58102;HTU21D;52034;51.926;6.320;2024-03-23T06:50:27;7.37;84.07
58102;HTU21D;52034;51.926;6.320;2024-03-23T06:51:29;7.37;84.78
58102;HTU21D;52034;51.926;6.320;2024-03-23T06:52:30;7.30;84.60
58102;HTU21D;52034;51.926;6.320;2024-03-23T06:53:30;7.30;84.42
58102;HTU21D;52034;51.926;6.320;2024-03-23T06:54:31;7.28;84.35
58102;HTU21D;52034;51.926;6.320;2024-03-23T06:55:32;7.32;84.48
58102;HTU21D;52034;51.926;6.320;2024-03-23T06:56:32;7.39;84.64
58102;HTU21D;52034;51.926;6.320;2024-03-23T06:57:33;7.35;83.81
58102;HTU21D;52034;51.926;6.320;2024-03-23T06:58:34;7.39;84.42
58102;HTU21D;52034;51.926;6.320;2024-03-23T06:59:34;7.52;84.52
58102;HTU21D;52034;51.926;6.320;2024-03-23T07:00:35;7.58;84.24
58102;HTU21D;52034;51.926;6.320;2024-03-23T07:01:35;7.60;83.82
58102;HTU21D;52034;51.926;6.320;2024-03-23T07:02:36;7.64;83.43
58102;HTU21D;52034;51.926;6.320;2024-03-23T07:03:40;7.65;83.97
58102;HTU21D;52034;51.926;6.320;2024-03-23T07:04:40;7.75;83.74
58102;HTU21D;52034;51.926;6.320;2024-03-23T07:05:41;7.81;82.78
58102;HTU21D;52034;51.926;6.320;2024-03-23T07:06:43;7.87;82.81
58102;HTU21D;52034;51.926;6.320;2024-03-23T07:07:44;7.84;83.20
58102;HTU21D;52034;51.926;6.320;2024-03-23T07:08:45;7.87;83.74
58102;HTU21D;52034;51.926;6.320;2024-03-23T07:09:46;7.88;83.15
58102;HTU21D;52034;51.926;6.320;2024-03-23T07:10:46;7.81;82.12
58102;HTU21D;52034;51.926;6.320;2024-03-23T07:11:47;7.76;82.56
58102;HTU21D;52034;51.926;6.320;2024-03-23T07:12:48;7.70;82.48
58102;HTU21D;52034;51.926;6.320;2024-03-23T07:13:51;7.77;81.48
58102;HTU21D;52034;51.926;6.320;2024-03-23T07:14:53;7.86;82.07
58102;HTU21D;52034;51.926;6.320;2024-03-23T07:15:53;7.88;81.44
58102;HTU21D;52034;51.926;6.320;2024-03-23T07:16:56;7.92;82.40
58102;HTU21D;52034;51.926;6.320;2024-03-23T07:17:57;7.90;80.99
58102;HTU21D;52034;51.926;6.320;2024-03-23T07:18:59;7.94;81.49
58102;HTU21D;52034;51.926;6.320;2024-03-23T07:19:59;8.07;81.30